Time,TemperatureF,DewpointF,PressureIn,WindDirection,WindDirectionDegrees,WindSpeedMPH,WindSpeedGustMPH,Humidity,HourlyPrecipIn,Conditions,Clouds,dailyrainin,SolarRadiationWatts/m^2,SoftwareType,DateUTC
2013-01-11 00:02:00,67.6,64.6,30.26,ESE,113,3.0,15.0,90,0.00,,,0.01,0,Wunderground v.1.15,2013-01-11 05:02:00,
2013-01-11 00:05:00,67.5,64.5,30.25,ESE,113,3.0,15.0,90,0.00,,,0.01,0,Wunderground v.1.15,2013-01-11 05:05:00,
2013-01-11 00:06:00,67.5,64.5,30.25,ESE,113,3.0,15.0,90,0.00,,,0.01,0,Wunderground v.1.15,2013-01-11 05:06:00,
2013-01-11 00:09:00,67.5,64.8,30.25,ESE,111,4.0,15.0,91,0.00,,,0.01,0,Wunderground v.1.15,2013-01-11 05:09:00,
2013-01-11 00:14:00,67.4,64.7,30.25,ESE,113,4.0,15.0,91,0.00,,,0.01,0,Wunderground v.1.15,2013-01-11 05:14:00,
2013-01-11 00:19:00,67.3,64.6,30.25,ESE,113,4.0,15.0,91,0.00,,,0.01,0,Wunderground v.1.15,2013-01-11 05:19:00,
2013-01-11 00:25:00,67.3,64.9,30.25,ESE,114,3.0,15.0,92,0.00,,,0.01,0,Wunderground v.1.15,2013-01-11 05:25:00,
2013-01-11 00:30:00,67.3,64.9,30.25,ESE,111,4.0,15.0,92,0.00,,,0.01,0,Wunderground v.1.15,2013-01-11 05:30:00,
2013-01-11 00:35:00,67.3,64.9,30.25,ESE,121,4.0,15.0,92,0.00,,,0.00,0,Wunderground v.1.15,2013-01-11 05:35:00,
2013-01-11 00:40:00,67.3,65.2,30.25,SE,128,5.0,5.0,93,0.00,,,0.00,0,Wunderground v.1.15,2013-01-11 05:40:00,
2013-01-11 00:46:00,67.2,65.1,30.25,SE,128,4.0,15.0,93,0.00,,,0.00,0,Wunderground v.1.15,2013-01-11 05:46:00,
2013-01-11 00:51:00,67.0,64.6,30.25,SE,128,3.0,15.0,92,0.00,,,0.00,0,Wunderground v.1.15,2013-01-11 05:51:00,
2013-01-11 00:56:00,66.9,64.8,30.25,SE,128,3.0,15.0,93,0.00,,,0.00,0,Wunderground v.1.15,2013-01-11 05:56:00,
2013-01-11 01:02:00,66.7,64.6,30.25,SE,128,3.0,15.0,93,0.00,,,0.00,0,Wunderground v.1.15,2013-01-11 06:02:00,
2013-01-11 01:07:00,66.7,64.6,30.25,SE,133,3.0,15.0,93,0.00,,,0.00,0,Wunderground v.1.15,2013-01-11 06:07:00,
2013-01-11 01:12:00,66.7,64.6,30.24,SE,138,4.0,15.0,93,0.00,,,0.00,0,Wunderground v.1.15,2013-01-11 06:12:00,
2013-01-11 01:18:00,66.6,64.5,30.24,SE,138,4.0,15.0,93,0.00,,,0.00,0,Wunderground v.1.15,2013-01-11 06:18:00,
2013-01-11 01:23:00,66.5,64.7,30.24,SE,138,5.0,15.0,94,0.00,,,0.00,0,Wunderground v.1.15,2013-01-11 06:23:00,
2013-01-11 01:28:00,66.5,64.4,30.24,SE,138,5.0,15.0,93,0.00,,,0.00,0,Wunderground v.1.15,2013-01-11 06:28:00,
2013-01-11 01:34:00,66.5,64.7,30.23,SE,138,5.0,15.0,94,0.00,,,0.00,0,Wunderground v.1.15,2013-01-11 06:34:00,
2013-01-11 01:39:00,66.5,64.7,30.23,SE,142,5.0,15.0,94,0.00,,,0.00,0,Wunderground v.1.15,2013-01-11 06:39:00,
2013-01-11 01:44:00,66.5,64.7,30.23,SE,138,5.0,15.0,94,0.00,,,0.00,0,Wunderground v.1.15,2013-01-11 06:44:00,
2013-01-11 01:50:00,66.6,64.8,30.23,SSE,149,6.0,6.0,94,0.00,,,0.00,0,Wunderground v.1.15,2013-01-11 06:50:00,
2013-01-11 01:56:00,66.8,65.0,30.23,SSE,150,6.0,15.0,94,0.00,,,0.00,0,Wunderground v.1.15,2013-01-11 06:56:00,
2013-01-11 02:01:00,66.8,65.0,30.23,SSE,150,5.0,15.0,94,0.00,,,0.00,0,Wunderground v.1.15,2013-01-11 07:01:00,
2013-01-11 02:07:00,66.6,64.8,30.23,SSE,147,5.0,15.0,94,0.00,,,0.00,0,Wunderground v.1.15,2013-01-11 07:07:00,
2013-01-11 02:12:00,66.5,64.4,30.23,SE,146,5.0,15.0,93,0.00,,,0.00,0,Wunderground v.1.15,2013-01-11 07:12:00,
2013-01-11 02:17:00,66.5,64.4,30.23,SSE,152,4.0,15.0,93,0.00,,,0.00,0,Wunderground v.1.15,2013-01-11 07:17:00,
2013-01-11 02:22:00,66.5,64.4,30.23,SSE,150,4.0,15.0,93,0.00,,,0.00,0,Wunderground v.1.15,2013-01-11 07:22:00,
2013-01-11 02:28:00,66.4,64.3,30.23,SSE,150,4.0,15.0,93,0.00,,,0.00,0,Wunderground v.1.15,2013-01-11 07:28:00,
2013-01-11 02:33:00,66.3,64.2,30.23,SSE,150,2.0,15.0,93,0.00,,,0.00,0,Wunderground v.1.15,2013-01-11 07:33:00,
2013-01-11 02:38:00,66.1,64.0,30.23,SSE,150,1.0,15.0,93,0.00,,,0.00,0,Wunderground v.1.15,2013-01-11 07:38:00,
2013-01-11 02:44:00,66.0,63.9,30.23,SSE,150,0.0,15.0,93,0.00,,,0.00,0,Wunderground v.1.15,2013-01-11 07:44:00,
2013-01-11 02:49:00,65.9,63.8,30.23,SSE,150,0.0,15.0,93,0.00,,,0.00,0,Wunderground v.1.15,2013-01-11 07:49:00,
2013-01-11 02:54:00,65.7,63.6,30.23,SSE,150,1.0,15.0,93,0.00,,,0.00,0,Wunderground v.1.15,2013-01-11 07:54:00,
2013-01-11 03:00:00,65.6,63.8,30.23,SSE,150,1.0,1.0,94,0.00,,,0.00,0,Wunderground v.1.15,2013-01-11 08:00:00,
2013-01-11 03:05:00,65.3,63.2,30.23,SSE,150,0.0,15.0,93,0.00,,,0.00,0,Wunderground v.1.15,2013-01-11 08:05:00,
2013-01-11 03:10:00,64.9,62.8,30.23,SSE,150,0.0,15.0,93,0.00,,,0.00,0,Wunderground v.1.15,2013-01-11 08:10:00,
2013-01-11 03:15:00,64.6,62.5,30.23,SSE,150,0.0,15.0,93,0.00,,,0.00,0,Wunderground v.1.15,2013-01-11 08:15:00,
2013-01-11 03:22:00,64.3,62.5,30.23,SSE,150,0.0,15.0,94,0.00,,,0.00,0,Wunderground v.1.15,2013-01-11 08:22:00,
2013-01-11 03:28:00,64.1,62.3,30.23,SSE,150,0.0,15.0,94,0.00,,,0.00,0,Wunderground v.1.15,2013-01-11 08:28:00,
2013-01-11 03:34:00,63.9,62.1,30.23,SSE,150,0.0,15.0,94,0.00,,,0.00,0,Wunderground v.1.15,2013-01-11 08:34:00,
2013-01-11 03:39:00,63.9,62.1,30.23,SSE,150,0.0,15.0,94,0.00,,,0.00,0,Wunderground v.1.15,2013-01-11 08:39:00,
2013-01-11 03:45:00,63.6,62.1,30.23,SSE,150,0.0,15.0,95,0.00,,,0.00,0,Wunderground v.1.15,2013-01-11 08:45:00,
2013-01-11 03:51:00,63.5,62.0,30.23,SSE,150,0.0,15.0,95,0.00,,,0.00,0,Wunderground v.1.15,2013-01-11 08:51:00,
2013-01-11 03:57:00,63.4,61.9,30.22,SSE,150,0.0,15.0,95,0.00,,,0.00,0,Wunderground v.1.15,2013-01-11 08:57:00,
2013-01-11 04:02:00,63.2,61.7,30.22,SSE,150,0.0,15.0,95,0.00,,,0.00,0,Wunderground v.1.15,2013-01-11 09:02:00,
2013-01-11 04:08:00,63.0,61.5,30.22,SSE,150,0.0,15.0,95,0.00,,,0.00,0,Wunderground v.1.15,2013-01-11 09:08:00,
2013-01-11 04:14:00,63.1,61.9,30.22,SSE,150,0.0,15.0,96,0.00,,,0.00,0,Wunderground v.1.15,2013-01-11 09:14:00,
2013-01-11 04:20:00,63.2,62.0,30.22,SSE,150,1.0,1.0,96,0.00,,,0.00,0,Wunderground v.1.15,2013-01-11 09:20:00,
2013-01-11 04:25:00,63.3,62.1,30.21,SSE,150,1.0,15.0,96,0.00,,,0.00,0,Wunderground v.1.15,2013-01-11 09:25:00,
2013-01-11 04:31:00,63.5,62.3,30.21,SSE,150,0.0,15.0,96,0.00,,,0.00,0,Wunderground v.1.15,2013-01-11 09:31:00,
2013-01-11 04:37:00,63.4,62.2,30.21,SW,215,0.0,15.0,96,0.00,,,0.00,0,Wunderground v.1.15,2013-01-11 09:37:00,
2013-01-11 04:43:00,63.3,62.1,30.21,SSW,209,0.0,15.0,96,0.00,,,0.00,0,Wunderground v.1.15,2013-01-11 09:43:00,
2013-01-11 04:49:00,63.2,62.0,30.20,SSW,200,0.0,15.0,96,0.00,,,0.00,0,Wunderground v.1.15,2013-01-11 09:49:00,
2013-01-11 04:55:00,63.2,62.0,30.20,SW,215,0.0,15.0,96,0.00,,,0.00,0,Wunderground v.1.15,2013-01-11 09:55:00,
2013-01-11 05:01:00,63.3,62.1,30.20,SSW,209,1.0,15.0,96,0.00,,,0.00,0,Wunderground v.1.15,2013-01-11 10:01:00,
2013-01-11 05:06:00,63.3,62.1,30.20,SSW,207,1.0,15.0,96,0.00,,,0.00,0,Wunderground v.1.15,2013-01-11 10:06:00,
2013-01-11 05:12:00,63.1,61.9,30.20,SSW,201,0.0,15.0,96,0.00,,,0.00,0,Wunderground v.1.15,2013-01-11 10:12:00,
2013-01-11 05:18:00,62.6,61.4,30.20,SW,236,0.0,15.0,96,0.00,,,0.00,0,Wunderground v.1.15,2013-01-11 10:18:00,
2013-01-11 05:24:00,62.3,61.1,30.20,SW,235,0.0,15.0,96,0.00,,,0.00,0,Wunderground v.1.15,2013-01-11 10:24:00,
2013-01-11 05:29:00,62.4,61.2,30.20,SW,220,0.0,15.0,96,0.00,,,0.00,0,Wunderground v.1.15,2013-01-11 10:29:00,
2013-01-11 05:35:00,62.5,61.6,30.20,SW,216,0.0,15.0,97,0.00,,,0.00,0,Wunderground v.1.15,2013-01-11 10:35:00,
2013-01-11 05:41:00,62.5,61.3,30.20,SW,225,0.0,15.0,96,0.00,,,0.00,0,Wunderground v.1.15,2013-01-11 10:41:00,
2013-01-11 05:47:00,62.5,61.6,30.20,SW,223,0.0,15.0,97,0.00,,,0.00,0,Wunderground v.1.15,2013-01-11 10:47:00,
2013-01-11 05:53:00,62.5,61.6,30.21,SW,217,0.0,15.0,97,0.00,,,0.00,0,Wunderground v.1.15,2013-01-11 10:53:00,
2013-01-11 05:59:00,62.5,61.6,30.21,SW,216,0.0,15.0,97,0.00,,,0.00,0,Wunderground v.1.15,2013-01-11 10:59:00,
2013-01-11 06:05:00,62.6,61.7,30.21,SW,216,0.0,15.0,97,0.00,,,0.00,0,Wunderground v.1.15,2013-01-11 11:05:00,
2013-01-11 06:10:00,62.9,62.0,30.22,SW,216,1.0,1.0,97,0.00,,,0.00,0,Wunderground v.1.15,2013-01-11 11:10:00,
2013-01-11 06:16:00,63.3,62.4,30.22,SW,215,1.0,15.0,97,0.00,,,0.00,0,Wunderground v.1.15,2013-01-11 11:16:00,
2013-01-11 06:22:00,63.6,62.7,30.22,SW,216,1.0,15.0,97,0.00,,,0.00,0,Wunderground v.1.15,2013-01-11 11:22:00,
2013-01-11 06:28:00,63.8,62.9,30.22,SW,215,2.0,15.0,97,0.00,,,0.00,0,Wunderground v.1.15,2013-01-11 11:28:00,
2013-01-11 06:33:00,63.9,63.0,30.22,South,180,2.0,15.0,97,0.00,,,0.00,0,Wunderground v.1.15,2013-01-11 11:33:00,
2013-01-11 06:39:00,64.0,63.1,30.22,SSE,168,3.0,15.0,97,0.00,,,0.00,0,Wunderground v.1.15,2013-01-11 11:39:00,
2013-01-11 06:45:00,64.2,63.3,30.22,SSE,167,3.0,15.0,97,0.00,,,0.00,0,Wunderground v.1.15,2013-01-11 11:45:00,
2013-01-11 06:51:00,64.3,63.4,30.22,SSE,167,1.0,15.0,97,0.00,,,0.00,0,Wunderground v.1.15,2013-01-11 11:51:00,
2013-01-11 06:57:00,64.3,63.4,30.22,SSE,167,0.0,15.0,97,0.00,,,0.00,0,Wunderground v.1.15,2013-01-11 11:57:00,
2013-01-11 07:03:00,64.3,63.4,30.21,SSE,148,0.0,15.0,97,0.00,,,0.00,0,Wunderground v.1.15,2013-01-11 12:03:00,
2013-01-11 07:09:00,64.3,63.4,30.21,SSE,147,0.0,15.0,97,0.00,,,0.00,0,Wunderground v.1.15,2013-01-11 12:09:00,
2013-01-11 07:14:00,64.3,63.4,30.22,SSE,168,0.0,15.0,97,0.00,,,0.00,5,Wunderground v.1.15,2013-01-11 12:14:00,
2013-01-11 07:20:00,64.3,63.4,30.22,SSE,154,0.0,15.0,97,0.00,,,0.00,0,Wunderground v.1.15,2013-01-11 12:20:00,
2013-01-11 07:26:00,64.3,63.4,30.22,SSE,153,0.0,15.0,97,0.00,,,0.00,7,Wunderground v.1.15,2013-01-11 12:26:00,
2013-01-11 07:32:00,64.5,63.6,30.22,East,98,0.0,15.0,97,0.00,,,0.00,12,Wunderground v.1.15,2013-01-11 12:32:00,
2013-01-11 07:37:00,64.5,63.6,30.22,SSE,148,1.0,15.0,97,0.00,,,0.00,18,Wunderground v.1.15,2013-01-11 12:37:00,
2013-01-11 07:43:00,64.4,63.5,30.23,East,88,0.0,15.0,97,0.00,,,0.00,18,Wunderground v.1.15,2013-01-11 12:43:00,
2013-01-11 07:49:00,64.3,63.4,30.23,East,88,0.0,15.0,97,0.00,,,0.00,26,Wunderground v.1.15,2013-01-11 12:49:00,
2013-01-11 07:55:00,64.2,63.3,30.23,East,88,1.0,15.0,97,0.00,,,0.00,33,Wunderground v.1.15,2013-01-11 12:55:00,
2013-01-11 08:01:00,64.3,63.4,30.23,East,88,3.0,15.0,97,0.00,,,0.00,40,Wunderground v.1.15,2013-01-11 13:01:00,
2013-01-11 08:07:00,64.4,63.5,30.23,East,88,3.0,15.0,97,0.00,,,0.00,42,Wunderground v.1.15,2013-01-11 13:07:00,
2013-01-11 08:13:00,64.6,64.0,30.23,East,88,1.0,15.0,98,0.00,,,0.00,44,Wunderground v.1.15,2013-01-11 13:13:00,
2013-01-11 08:18:00,64.8,64.2,30.24,East,88,1.0,15.0,98,0.00,,,0.00,97,Wunderground v.1.15,2013-01-11 13:18:00,
2013-01-11 08:24:00,65.3,64.7,30.24,East,88,0.0,15.0,98,0.00,,,0.01,169,Wunderground v.1.15,2013-01-11 13:24:00,
2013-01-11 08:30:00,66.0,65.4,30.24,East,88,0.0,15.0,98,0.00,,,0.01,176,Wunderground v.1.15,2013-01-11 13:30:00,
2013-01-11 08:36:00,66.6,66.0,30.24,East,88,0.0,15.0,98,0.00,,,0.01,192,Wunderground v.1.15,2013-01-11 13:36:00,
2013-01-11 08:41:00,67.1,66.5,30.25,East,88,0.0,15.0,98,0.00,,,0.01,216,Wunderground v.1.15,2013-01-11 13:41:00,
2013-01-11 08:47:00,67.5,66.9,30.25,South,178,0.0,15.0,98,0.00,,,0.01,251,Wunderground v.1.15,2013-01-11 13:47:00,
2013-01-11 08:53:00,67.6,67.0,30.25,West,259,0.0,15.0,98,0.00,,,0.01,214,Wunderground v.1.15,2013-01-11 13:53:00,
2013-01-11 08:59:00,67.5,66.9,30.25,West,259,0.0,15.0,98,0.00,,,0.01,128,Wunderground v.1.15,2013-01-11 13:59:00,
2013-01-11 09:04:00,67.6,67.0,30.25,West,259,0.0,15.0,98,0.00,,,0.01,183,Wunderground v.1.15,2013-01-11 14:04:00,
2013-01-11 09:10:00,68.1,67.5,30.25,SW,223,0.0,15.0,98,0.00,,,0.01,381,Wunderground v.1.15,2013-01-11 14:10:00,
2013-01-11 09:16:00,68.3,67.7,30.25,SW,223,0.0,15.0,98,0.00,,,0.01,230,Wunderground v.1.15,2013-01-11 14:16:00,
2013-01-11 09:22:00,68.8,68.2,30.25,SSW,211,1.0,15.0,98,0.00,,,0.01,424,Wunderground v.1.15,2013-01-11 14:22:00,
2013-01-11 09:27:00,69.7,69.1,30.25,South,188,2.0,15.0,98,0.00,,,0.01,420,Wunderground v.1.15,2013-01-11 14:27:00,
2013-01-11 09:33:00,70.3,69.7,30.25,ESE,117,3.0,15.0,98,0.00,,,0.01,123,Wunderground v.1.15,2013-01-11 14:33:00,
2013-01-11 09:39:00,70.2,69.0,30.26,SSE,153,4.0,15.0,96,0.00,,,0.01,130,Wunderground v.1.15,2013-01-11 14:39:00,
2013-01-11 09:45:00,70.0,68.5,30.25,SSE,157,2.0,15.0,95,0.00,,,0.01,204,Wunderground v.1.15,2013-01-11 14:45:00,
2013-01-11 09:50:00,70.1,68.6,30.25,SSE,157,0.0,15.0,95,0.00,,,0.01,223,Wunderground v.1.15,2013-01-11 14:50:00,
2013-01-11 09:56:00,70.3,68.8,30.25,SSE,157,0.0,15.0,95,0.00,,,0.01,186,Wunderground v.1.15,2013-01-11 14:56:00,
2013-01-11 10:02:00,70.2,68.4,30.26,SSE,147,1.0,15.0,94,0.00,,,0.01,230,Wunderground v.1.15,2013-01-11 15:02:00,
2013-01-11 10:08:00,70.7,69.2,30.26,SSE,152,4.0,15.0,95,0.00,,,0.01,272,Wunderground v.1.15,2013-01-11 15:08:00,
2013-01-11 10:14:00,71.2,69.1,30.26,SSE,155,5.0,15.0,93,0.00,,,0.01,285,Wunderground v.1.15,2013-01-11 15:14:00,
2013-01-11 10:20:00,71.5,69.1,30.26,SE,138,6.0,15.0,92,0.00,,,0.01,276,Wunderground v.1.15,2013-01-11 15:20:00,
2013-01-11 10:26:00,71.7,68.9,30.26,SSE,163,5.0,15.0,91,0.00,,,0.01,267,Wunderground v.1.15,2013-01-11 15:26:00,
2013-01-11 10:31:00,71.6,68.8,30.26,SSE,158,5.0,15.0,91,0.00,,,0.01,257,Wunderground v.1.15,2013-01-11 15:31:00,
2013-01-11 10:37:00,71.9,68.8,30.25,SE,145,5.0,15.0,90,0.00,,,0.01,308,Wunderground v.1.15,2013-01-11 15:37:00,
2013-01-11 10:43:00,72.4,69.3,30.25,SSE,148,5.0,15.0,90,0.00,,,0.01,613,Wunderground v.1.15,2013-01-11 15:43:00,
2013-01-11 10:49:00,73.0,69.2,30.25,SSE,154,5.0,15.0,88,0.00,,,0.01,360,Wunderground v.1.15,2013-01-11 15:49:00,
2013-01-11 10:54:00,73.3,69.2,30.24,SSE,160,7.0,15.0,87,0.00,,,0.01,494,Wunderground v.1.15,2013-01-11 15:54:00,
2013-01-11 11:00:00,73.7,69.6,30.24,SSE,156,9.0,15.0,87,0.00,,,0.01,580,Wunderground v.1.15,2013-01-11 16:00:00,
2013-01-11 11:06:00,74.5,69.3,30.23,SSE,152,9.0,15.0,84,0.00,,,0.01,587,Wunderground v.1.15,2013-01-11 16:06:00,
2013-01-11 11:12:00,75.0,69.1,30.23,SSE,159,11.0,15.0,82,0.00,,,0.01,584,Wunderground v.1.15,2013-01-11 16:12:00,
2013-01-11 11:18:00,74.7,68.8,30.23,SSE,163,13.0,16.0,82,0.00,,,0.01,598,Wunderground v.1.15,2013-01-11 16:18:00,
2013-01-11 11:24:00,74.3,68.8,30.23,SE,146,14.0,17.0,83,0.00,,,0.01,633,Wunderground v.1.15,2013-01-11 16:24:00,
2013-01-11 11:30:00,74.9,69.0,30.22,SSE,161,14.0,14.0,82,0.00,,,0.01,647,Wunderground v.1.15,2013-01-11 16:30:00,
2013-01-11 11:35:00,74.8,68.6,30.22,SSE,160,13.0,15.0,81,0.00,,,0.01,666,Wunderground v.1.15,2013-01-11 16:35:00,
2013-01-11 11:41:00,74.8,66.7,30.22,SSE,152,12.0,15.0,76,0.00,,,0.01,299,Wunderground v.1.15,2013-01-11 16:41:00,
2013-01-11 11:47:00,75.0,66.5,30.21,SSE,160,12.0,15.0,75,0.00,,,0.01,708,Wunderground v.1.15,2013-01-11 16:47:00,
2013-01-11 11:53:00,75.8,66.9,30.21,SE,138,11.0,15.0,74,0.00,,,0.01,221,Wunderground v.1.15,2013-01-11 16:53:00,
2013-01-11 11:58:00,76.8,67.1,30.20,SSE,168,9.0,15.0,72,0.00,,,0.01,714,Wunderground v.1.15,2013-01-11 16:58:00,
2013-01-11 12:04:00,76.0,65.1,30.20,SE,145,10.0,15.0,69,0.00,,,0.01,202,Wunderground v.1.15,2013-01-11 17:04:00,
2013-01-11 12:10:00,76.3,65.8,30.20,SSE,161,9.0,15.0,70,0.00,,,0.01,759,Wunderground v.1.15,2013-01-11 17:10:00,
2013-01-11 12:16:00,76.2,66.1,30.19,SSE,159,10.0,15.0,71,0.00,,,0.01,721,Wunderground v.1.15,2013-01-11 17:16:00,
2013-01-11 12:22:00,76.1,66.8,30.19,SSE,154,12.0,15.0,73,0.00,,,0.01,132,Wunderground v.1.15,2013-01-11 17:22:00,
2013-01-11 12:28:00,76.3,65.4,30.19,SSE,162,12.0,16.0,69,0.00,,,0.01,721,Wunderground v.1.15,2013-01-11 17:28:00,
2013-01-11 12:34:00,76.6,66.5,30.18,SSE,161,11.0,16.0,71,0.00,,,0.01,728,Wunderground v.1.15,2013-01-11 17:34:00,
2013-01-11 12:39:00,76.2,66.5,30.18,SSE,157,12.0,16.0,72,0.00,,,0.01,773,Wunderground v.1.15,2013-01-11 17:39:00,
2013-01-11 12:45:00,76.1,66.4,30.18,SSE,154,11.0,15.0,72,0.00,,,0.01,777,Wunderground v.1.15,2013-01-11 17:45:00,
2013-01-11 12:51:00,76.8,65.9,30.18,SSE,157,9.0,15.0,69,0.00,,,0.01,700,Wunderground v.1.15,2013-01-11 17:51:00,
2013-01-11 12:57:00,77.6,66.6,30.17,SSE,163,9.0,15.0,69,0.00,,,0.01,703,Wunderground v.1.15,2013-01-11 17:57:00,
2013-01-11 13:02:00,77.5,66.5,30.17,SE,128,10.0,15.0,69,0.00,,,0.01,686,Wunderground v.1.15,2013-01-11 18:02:00,
2013-01-11 13:08:00,77.8,66.8,30.17,SE,138,10.0,15.0,69,0.00,,,0.01,262,Wunderground v.1.15,2013-01-11 18:08:00,
2013-01-11 13:14:00,77.6,67.0,30.17,SE,143,11.0,15.0,70,0.00,,,0.01,243,Wunderground v.1.15,2013-01-11 18:14:00,
2013-01-11 13:20:00,77.8,66.8,30.16,SE,138,10.0,10.0,69,0.00,,,0.01,747,Wunderground v.1.15,2013-01-11 18:20:00,
2013-01-11 13:26:00,78.0,67.0,30.16,SE,128,9.0,15.0,69,0.00,,,0.01,225,Wunderground v.1.15,2013-01-11 18:26:00,
2013-01-11 13:32:00,78.2,67.2,30.16,SSE,159,10.0,15.0,69,0.00,,,0.01,833,Wunderground v.1.15,2013-01-11 18:32:00,
2013-01-11 13:38:00,77.9,67.3,30.16,SSE,148,9.0,15.0,70,0.00,,,0.01,772,Wunderground v.1.15,2013-01-11 18:38:00,
2013-01-11 13:43:00,78.5,67.9,30.16,SE,138,8.0,15.0,70,0.00,,,0.01,281,Wunderground v.1.15,2013-01-11 18:43:00,
2013-01-11 13:49:00,78.7,67.7,30.15,SSE,155,8.0,15.0,69,0.00,,,0.01,311,Wunderground v.1.15,2013-01-11 18:49:00,
2013-01-11 13:55:00,78.4,67.4,30.15,SE,138,9.0,15.0,69,0.00,,,0.01,334,Wunderground v.1.15,2013-01-11 18:55:00,
2013-01-11 14:01:00,78.8,67.3,30.15,SE,138,10.0,15.0,68,0.00,,,0.01,673,Wunderground v.1.15,2013-01-11 19:01:00,
2013-01-11 14:06:00,79.1,67.6,30.15,SE,138,11.0,15.0,68,0.00,,,0.01,798,Wunderground v.1.15,2013-01-11 19:06:00,
2013-01-11 14:12:00,78.8,66.9,30.15,SE,133,11.0,15.0,67,0.00,,,0.01,255,Wunderground v.1.15,2013-01-11 19:12:00,
2013-01-11 14:18:00,79.1,67.6,30.15,SE,128,8.0,15.0,68,0.00,,,0.01,167,Wunderground v.1.15,2013-01-11 19:18:00,
2013-01-11 14:24:00,79.0,67.5,30.15,SE,128,9.0,15.0,68,0.00,,,0.01,269,Wunderground v.1.15,2013-01-11 19:24:00,
2013-01-11 14:30:00,79.1,67.6,30.15,East,97,7.0,15.0,68,0.00,,,0.01,223,Wunderground v.1.15,2013-01-11 19:30:00,
2013-01-11 14:36:00,79.4,67.5,30.15,ESE,120,8.0,15.0,67,0.00,,,0.01,251,Wunderground v.1.15,2013-01-11 19:36:00,
2013-01-11 14:42:00,79.6,67.7,30.15,ESE,122,8.0,15.0,67,0.00,,,0.01,156,Wunderground v.1.15,2013-01-11 19:42:00,
2013-01-11 14:47:00,79.5,67.6,30.15,ESE,118,8.0,15.0,67,0.00,,,0.01,199,Wunderground v.1.15,2013-01-11 19:47:00,
2013-01-11 14:53:00,79.8,67.9,30.15,ESE,117,6.0,15.0,67,0.00,,,0.01,230,Wunderground v.1.15,2013-01-11 19:53:00,
2013-01-11 14:59:00,79.7,67.3,30.15,SE,128,8.0,15.0,66,0.00,,,0.01,186,Wunderground v.1.15,2013-01-11 19:59:00,
2013-01-11 15:05:00,79.3,67.8,30.15,SSE,155,7.0,15.0,68,0.00,,,0.01,292,Wunderground v.1.15,2013-01-11 20:05:00,
2013-01-11 15:10:00,79.0,67.5,30.15,SSE,157,8.0,15.0,68,0.00,,,0.01,234,Wunderground v.1.15,2013-01-11 20:10:00,
2013-01-11 15:16:00,78.9,67.4,30.15,SE,145,8.0,15.0,68,0.00,,,0.01,269,Wunderground v.1.15,2013-01-11 20:16:00,
2013-01-11 15:22:00,79.1,67.6,30.15,ESE,122,7.0,15.0,68,0.00,,,0.01,288,Wunderground v.1.15,2013-01-11 20:22:00,
2013-01-11 15:28:00,79.1,67.2,30.15,SE,128,8.0,15.0,67,0.00,,,0.01,202,Wunderground v.1.15,2013-01-11 20:28:00,
2013-01-11 15:34:00,79.1,66.8,30.15,SE,128,8.0,15.0,66,0.00,,,0.01,190,Wunderground v.1.15,2013-01-11 20:34:00,
2013-01-11 15:40:00,78.9,67.0,30.15,SE,144,7.0,15.0,67,0.00,,,0.01,151,Wunderground v.1.15,2013-01-11 20:40:00,
2013-01-11 15:46:00,78.6,66.7,30.15,SE,138,7.0,15.0,67,0.00,,,0.01,160,Wunderground v.1.15,2013-01-11 20:46:00,
2013-01-11 15:51:00,78.6,66.7,30.15,SE,128,9.0,15.0,67,0.00,,,0.01,230,Wunderground v.1.15,2013-01-11 20:51:00,
2013-01-11 15:57:00,78.8,66.9,30.15,SE,142,7.0,15.0,67,0.00,,,0.01,237,Wunderground v.1.15,2013-01-11 20:57:00,
2013-01-11 16:03:00,79.0,67.1,30.15,SE,128,6.0,15.0,67,0.00,,,0.01,204,Wunderground v.1.15,2013-01-11 21:03:00,
2013-01-11 16:09:00,79.1,66.3,30.15,East,79,5.0,15.0,65,0.00,,,0.01,134,Wunderground v.1.15,2013-01-11 21:09:00,
2013-01-11 16:14:00,79.1,66.8,30.15,ESE,113,5.0,15.0,66,0.00,,,0.01,165,Wunderground v.1.15,2013-01-11 21:14:00,
2013-01-11 16:20:00,79.2,67.3,30.15,ESE,116,6.0,15.0,67,0.00,,,0.01,155,Wunderground v.1.15,2013-01-11 21:20:00,
2013-01-11 16:26:00,79.1,66.8,30.15,East,88,6.0,15.0,66,0.00,,,0.01,139,Wunderground v.1.15,2013-01-11 21:26:00,
2013-01-11 16:32:00,79.0,67.1,30.15,ESE,104,6.0,15.0,67,0.00,,,0.01,144,Wunderground v.1.15,2013-01-11 21:32:00,
2013-01-11 16:37:00,78.8,66.9,30.15,ESE,106,6.0,15.0,67,0.00,,,0.01,199,Wunderground v.1.15,2013-01-11 21:37:00,
2013-01-11 16:43:00,78.6,66.7,30.15,East,98,5.0,15.0,67,0.00,,,0.01,130,Wunderground v.1.15,2013-01-11 21:43:00,
2013-01-11 16:49:00,78.5,66.6,30.15,East,97,5.0,15.0,67,0.00,,,0.01,146,Wunderground v.1.15,2013-01-11 21:49:00,
2013-01-11 16:55:00,78.3,66.9,30.15,ESE,106,5.0,15.0,68,0.00,,,0.01,113,Wunderground v.1.15,2013-01-11 21:55:00,
2013-01-11 17:00:00,78.1,66.7,30.15,ESE,109,5.0,5.0,68,0.00,,,0.01,67,Wunderground v.1.15,2013-01-11 22:00:00,
2013-01-11 17:06:00,77.8,66.8,30.15,East,98,4.0,15.0,69,0.00,,,0.01,42,Wunderground v.1.15,2013-01-11 22:06:00,
2013-01-11 17:12:00,77.4,66.8,30.16,East,95,4.0,15.0,70,0.00,,,0.01,33,Wunderground v.1.15,2013-01-11 22:12:00,
2013-01-11 17:18:00,77.0,66.9,30.16,East,92,4.0,15.0,71,0.00,,,0.01,28,Wunderground v.1.15,2013-01-11 22:18:00,
2013-01-11 17:23:00,76.8,67.1,30.16,East,100,4.0,15.0,72,0.00,,,0.01,26,Wunderground v.1.15,2013-01-11 22:23:00,
2013-01-11 17:29:00,76.6,67.3,30.16,ESE,108,5.0,15.0,73,0.00,,,0.01,21,Wunderground v.1.15,2013-01-11 22:29:00,
2013-01-11 17:35:00,76.4,67.1,30.16,ESE,113,5.0,15.0,73,0.00,,,0.01,14,Wunderground v.1.15,2013-01-11 22:35:00,
2013-01-11 17:41:00,76.2,67.3,30.16,East,90,5.0,15.0,74,0.00,,,0.01,9,Wunderground v.1.15,2013-01-11 22:41:00,
2013-01-11 17:46:00,76.0,67.1,30.16,East,98,5.0,15.0,74,0.00,,,0.01,5,Wunderground v.1.15,2013-01-11 22:46:00,
2013-01-11 17:52:00,75.8,67.3,30.16,East,101,5.0,15.0,75,0.00,,,0.01,0,Wunderground v.1.15,2013-01-11 22:52:00,
2013-01-11 17:58:00,75.5,67.4,30.15,East,92,5.0,15.0,76,0.00,,,0.01,0,Wunderground v.1.15,2013-01-11 22:58:00,
2013-01-11 18:04:00,75.2,67.5,30.16,East,100,4.0,15.0,77,0.00,,,0.01,0,Wunderground v.1.15,2013-01-11 23:04:00,
2013-01-11 18:10:00,74.8,67.5,30.15,ESE,116,4.0,15.0,78,0.00,,,0.01,0,Wunderground v.1.15,2013-01-11 23:10:00,
2013-01-11 18:16:00,74.6,67.7,30.15,ESE,111,4.0,15.0,79,0.00,,,0.01,0,Wunderground v.1.15,2013-01-11 23:16:00,
2013-01-11 18:22:00,74.3,67.7,30.15,ESE,115,4.0,15.0,80,0.00,,,0.01,0,Wunderground v.1.15,2013-01-11 23:22:00,
2013-01-11 18:28:00,74.2,68.0,30.16,ESE,117,4.0,15.0,81,0.00,,,0.01,0,Wunderground v.1.15,2013-01-11 23:28:00,
2013-01-11 18:33:00,74.0,67.8,30.16,ESE,108,5.0,15.0,81,0.00,,,0.01,0,Wunderground v.1.15,2013-01-11 23:33:00,
2013-01-11 18:39:00,74.0,67.8,30.16,ESE,109,5.0,15.0,81,0.00,,,0.01,0,Wunderground v.1.15,2013-01-11 23:39:00,
2013-01-11 18:45:00,73.9,68.1,30.16,ESE,121,6.0,15.0,82,0.00,,,0.01,0,Wunderground v.1.15,2013-01-11 23:45:00,
2013-01-11 18:50:00,74.0,68.2,30.16,East,82,7.0,7.0,82,0.00,,,0.01,0,Wunderground v.1.15,2013-01-11 23:50:00,
2013-01-11 18:56:00,74.0,68.2,30.16,SE,128,7.0,15.0,82,0.00,,,0.01,0,Wunderground v.1.15,2013-01-11 23:56:00,
2013-01-11 19:01:00,73.9,68.1,30.16,SE,128,7.0,15.0,82,0.00,,,0.01,0,Wunderground v.1.15,2013-01-12 00:01:00,
2013-01-11 19:07:00,73.8,68.0,30.15,ESE,122,7.0,15.0,82,0.00,,,0.01,0,Wunderground v.1.15,2013-01-12 00:07:00,
2013-01-11 19:13:00,73.7,67.9,30.16,ESE,115,7.0,15.0,82,0.00,,,0.01,0,Wunderground v.1.15,2013-01-12 00:13:00,
2013-01-11 19:18:00,73.7,68.2,30.16,SE,133,5.0,15.0,83,0.00,,,0.01,0,Wunderground v.1.15,2013-01-12 00:18:00,
2013-01-11 19:23:00,73.6,68.1,30.16,SE,128,5.0,15.0,83,0.00,,,0.01,0,Wunderground v.1.15,2013-01-12 00:23:00,
2013-01-11 19:29:00,73.5,68.0,30.17,ESE,119,6.0,15.0,83,0.00,,,0.01,0,Wunderground v.1.15,2013-01-12 00:29:00,
2013-01-11 19:34:00,73.4,67.9,30.17,SE,133,7.0,15.0,83,0.00,,,0.01,0,Wunderground v.1.15,2013-01-12 00:34:00,
2013-01-11 19:40:00,73.3,67.8,30.17,SE,128,7.0,7.0,83,0.00,,,0.01,0,Wunderground v.1.15,2013-01-12 00:40:00,
2013-01-11 19:45:00,73.3,67.8,30.17,SE,133,6.0,15.0,83,0.00,,,0.01,0,Wunderground v.1.15,2013-01-12 00:45:00,
2013-01-11 19:51:00,73.2,68.1,30.17,SE,138,6.0,8.0,84,0.00,,,0.01,0,Wunderground v.1.15,2013-01-12 00:51:00,
2013-01-11 19:56:00,73.1,68.0,30.17,SE,138,6.0,15.0,84,0.00,,,0.01,0,Wunderground v.1.15,2013-01-12 00:56:00,
2013-01-11 20:02:00,73.0,67.9,30.17,SE,138,6.0,15.0,84,0.00,,,0.01,0,Wunderground v.1.15,2013-01-12 01:02:00,
2013-01-11 20:08:00,72.8,67.3,30.17,SE,133,6.0,15.0,83,0.00,,,0.01,0,Wunderground v.1.15,2013-01-12 01:08:00,
2013-01-11 20:14:00,72.7,67.2,30.17,SE,128,7.0,15.0,83,0.00,,,0.01,0,Wunderground v.1.15,2013-01-12 01:14:00,
2013-01-11 20:20:00,72.6,67.1,30.17,SE,138,7.0,7.0,83,0.00,,,0.01,0,Wunderground v.1.15,2013-01-12 01:20:00,
2013-01-11 20:26:00,72.5,67.0,30.17,SE,138,7.0,15.0,83,0.00,,,0.01,0,Wunderground v.1.15,2013-01-12 01:26:00,
2013-01-11 20:32:00,72.5,67.0,30.17,SE,138,7.0,15.0,83,0.00,,,0.01,0,Wunderground v.1.15,2013-01-12 01:32:00,
2013-01-11 20:38:00,72.4,66.9,30.17,SE,142,6.0,15.0,83,0.00,,,0.01,0,Wunderground v.1.15,2013-01-12 01:38:00,
2013-01-11 20:43:00,72.3,66.8,30.17,SE,138,8.0,15.0,83,0.00,,,0.01,0,Wunderground v.1.15,2013-01-12 01:43:00,
2013-01-11 20:49:00,72.2,66.7,30.17,SE,142,7.0,15.0,83,0.00,,,0.01,0,Wunderground v.1.15,2013-01-12 01:49:00,
2013-01-11 20:55:00,72.0,66.6,30.17,SE,128,6.0,15.0,83,0.00,,,0.01,0,Wunderground v.1.15,2013-01-12 01:55:00,
2013-01-11 21:00:00,71.8,66.7,30.17,SSE,161,6.0,6.0,84,0.00,,,0.01,0,Wunderground v.1.15,2013-01-12 02:00:00,
2013-01-11 21:06:00,71.6,66.5,30.17,SSE,151,6.0,15.0,84,0.00,,,0.01,0,Wunderground v.1.15,2013-01-12 02:06:00,
2013-01-11 21:11:00,71.5,66.8,30.17,SSE,155,6.0,15.0,85,0.00,,,0.01,0,Wunderground v.1.15,2013-01-12 02:11:00,
2013-01-11 21:17:00,71.3,66.6,30.17,SSE,147,5.0,15.0,85,0.00,,,0.01,0,Wunderground v.1.15,2013-01-12 02:17:00,
2013-01-11 21:22:00,71.3,66.6,30.17,SE,142,6.0,15.0,85,0.00,,,0.01,0,Wunderground v.1.15,2013-01-12 02:22:00,
2013-01-11 21:28:00,71.1,66.7,30.18,SSE,148,6.0,15.0,86,0.00,,,0.01,0,Wunderground v.1.15,2013-01-12 02:28:00,
2013-01-11 21:33:00,71.0,66.6,30.18,SSE,150,5.0,15.0,86,0.00,,,0.01,0,Wunderground v.1.15,2013-01-12 02:33:00,
2013-01-11 21:39:00,71.0,66.9,30.17,SE,146,6.0,15.0,87,0.00,,,0.01,0,Wunderground v.1.15,2013-01-12 02:39:00,
2013-01-11 21:45:00,71.0,66.9,30.18,SE,143,7.0,15.0,87,0.00,,,0.01,0,Wunderground v.1.15,2013-01-12 02:45:00,
2013-01-11 21:50:00,71.0,66.9,30.17,SE,144,7.0,7.0,87,0.00,,,0.01,0,Wunderground v.1.15,2013-01-12 02:50:00,
2013-01-11 21:56:00,71.0,66.9,30.17,SE,144,7.0,15.0,87,0.00,,,0.01,0,Wunderground v.1.15,2013-01-12 02:56:00,
2013-01-11 22:02:00,71.0,66.9,30.18,SE,146,6.0,15.0,87,0.00,,,0.01,0,Wunderground v.1.15,2013-01-12 03:02:00,
2013-01-11 22:08:00,71.0,66.9,30.18,SE,146,6.0,15.0,87,0.00,,,0.01,0,Wunderground v.1.15,2013-01-12 03:08:00,
2013-01-11 22:14:00,71.0,67.3,30.18,SSE,150,6.0,15.0,88,0.00,,,0.01,0,Wunderground v.1.15,2013-01-12 03:14:00,
2013-01-11 22:20:00,70.9,67.2,30.18,SE,144,6.0,15.0,88,0.00,,,0.01,0,Wunderground v.1.15,2013-01-12 03:20:00,
2013-01-11 22:25:00,70.9,66.8,30.18,SSE,156,6.0,15.0,87,0.00,,,0.01,0,Wunderground v.1.15,2013-01-12 03:25:00,
2013-01-11 22:31:00,70.9,67.2,30.18,SSE,152,6.0,15.0,88,0.00,,,0.01,0,Wunderground v.1.15,2013-01-12 03:31:00,
2013-01-11 22:37:00,70.8,67.1,30.18,SSE,151,6.0,15.0,88,0.00,,,0.01,0,Wunderground v.1.15,2013-01-12 03:37:00,
2013-01-11 22:42:00,70.8,67.1,30.18,SE,145,7.0,15.0,88,0.00,,,0.01,0,Wunderground v.1.15,2013-01-12 03:42:00,
2013-01-11 22:47:00,70.7,67.0,30.17,SSE,148,8.0,15.0,88,0.00,,,0.01,0,Wunderground v.1.15,2013-01-12 03:47:00,
2013-01-11 22:53:00,70.5,66.8,30.17,SE,144,8.0,15.0,88,0.00,,,0.01,0,Wunderground v.1.15,2013-01-12 03:53:00,
2013-01-11 22:59:00,70.4,66.7,30.17,SE,142,7.0,15.0,88,0.00,,,0.01,0,Wunderground v.1.15,2013-01-12 03:59:00,
2013-01-11 23:05:00,70.3,66.9,30.17,SSE,156,6.0,15.0,89,0.00,,,0.01,0,Wunderground v.1.15,2013-01-12 04:05:00,
2013-01-11 23:10:00,70.2,66.8,30.17,SSE,159,6.0,6.0,89,0.00,,,0.01,0,Wunderground v.1.15,2013-01-12 04:10:00,
2013-01-11 23:15:00,70.0,66.6,30.17,SSE,157,6.0,15.0,89,0.00,,,0.01,0,Wunderground v.1.15,2013-01-12 04:15:00,
2013-01-11 23:21:00,69.8,66.4,30.17,SSE,148,5.0,15.0,89,0.00,,,0.01,0,Wunderground v.1.15,2013-01-12 04:21:00,
2013-01-11 23:27:00,69.6,66.2,30.17,SE,138,5.0,15.0,89,0.00,,,0.01,0,Wunderground v.1.15,2013-01-12 04:27:00,
2013-01-11 23:33:00,69.4,66.3,30.18,SE,143,4.0,15.0,90,0.00,,,0.01,0,Wunderground v.1.15,2013-01-12 04:33:00,
2013-01-11 23:38:00,69.3,66.2,30.18,SE,143,3.0,15.0,90,0.00,,,0.01,0,Wunderground v.1.15,2013-01-12 04:38:00,
2013-01-11 23:43:00,69.1,66.0,30.18,SE,143,3.0,15.0,90,0.00,,,0.01,0,Wunderground v.1.15,2013-01-12 04:43:00,
2013-01-11 23:49:00,68.9,65.8,30.18,SE,143,1.0,15.0,90,0.00,,,0.01,0,Wunderground v.1.15,2013-01-12 04:49:00,
2013-01-11 23:54:00,68.8,66.1,30.18,SE,143,0.0,15.0,91,0.00,,,0.01,0,Wunderground v.1.15,2013-01-12 04:54:00,